createdAt,value
2019-01-28T00:03:06.036Z,1.00
2019-01-28T00:08:09.807Z,0.75
2019-01-28T00:13:13.586Z,1.00
2019-01-28T00:18:17.366Z,0.00
2019-01-28T00:23:21.139Z,0.00
2019-01-28T00:28:24.924Z,0.00
2019-01-28T00:33:28.705Z,0.00
2019-01-28T00:38:32.497Z,1.00
2019-01-28T00:43:36.330Z,1.00
2019-01-28T00:48:40.099Z,0.00
2019-01-28T00:53:43.892Z,0.75
2019-01-28T00:58:47.685Z,1.00
2019-01-28T01:03:51.464Z,0.75
2019-01-28T01:08:55.248Z,0.60
2019-01-28T01:13:59.022Z,0.80
2019-01-28T01:19:03.176Z,0.00
2019-01-28T01:24:06.972Z,0.20
2019-01-28T01:29:10.740Z,0.00
2019-01-28T01:34:14.508Z,0.00
2019-01-28T01:39:18.295Z,0.00
2019-01-28T01:44:22.209Z,1.00
2019-01-28T01:49:25.966Z,1.00
2019-01-28T01:54:29.734Z,0.00
2019-01-28T01:59:33.536Z,0.00
2019-01-28T02:04:37.307Z,0.60
2019-01-28T02:09:41.094Z,1.00
2019-01-28T02:14:44.864Z,0.00
2019-01-28T02:19:48.656Z,0.00
2019-01-28T02:24:52.488Z,0.00
2019-01-28T02:29:56.268Z,0.00
2019-01-28T02:35:00.347Z,0.00
2019-01-28T02:40:05.261Z,0.00
2019-01-28T02:45:10.176Z,1.00
2019-01-28T02:50:15.750Z,0.00
2019-01-28T02:55:19.897Z,0.20
2019-01-28T03:00:23.753Z,0.00
2019-01-28T03:05:27.536Z,0.00
2019-01-28T03:10:31.793Z,0.25
2019-01-28T03:15:36.817Z,0.00
2019-01-28T03:20:40.635Z,1.00
2019-01-28T03:25:44.410Z,0.00
2019-01-28T03:30:48.175Z,0.25
2019-01-28T03:35:51.949Z,1.00
2019-01-28T03:40:55.723Z,0.00
2019-01-28T03:45:59.506Z,0.00
2019-01-28T03:51:03.269Z,0.00
2019-01-28T03:56:07.045Z,0.60
2019-01-28T04:01:10.833Z,0.00
2019-01-28T04:06:14.743Z,0.00
2019-01-28T04:11:18.512Z,0.00
2019-01-28T04:16:22.278Z,0.00
2019-01-28T04:21:26.046Z,0.00
2019-01-28T04:26:29.822Z,0.00
2019-01-28T04:31:33.619Z,0.00
2019-01-28T04:36:37.413Z,0.00
2019-01-28T04:41:41.170Z,0.00
2019-01-28T04:46:44.934Z,0.00
2019-01-28T04:51:48.717Z,0.00
2019-01-28T04:56:52.496Z,0.00
2019-01-28T05:01:56.270Z,0.25
2019-01-28T05:07:00.215Z,0.60
2019-01-28T05:12:03.982Z,0.00
2019-01-28T05:17:07.746Z,0.00
2019-01-28T05:22:11.539Z,1.00
2019-01-28T05:27:16.092Z,0.00
2019-01-28T05:32:19.882Z,0.00
2019-01-28T05:37:23.684Z,1.00
2019-01-28T05:42:27.500Z,0.00
2019-01-28T05:47:31.234Z,0.00
2019-01-28T05:52:35.009Z,0.00
2019-01-28T05:57:38.842Z,0.00
2019-01-28T06:02:42.608Z,0.00
2019-01-28T06:07:46.386Z,0.00
2019-01-28T06:12:50.175Z,1.00
2019-01-28T06:17:53.968Z,0.00
2019-01-28T06:22:57.728Z,0.40
2019-01-28T06:28:01.508Z,0.00
2019-01-28T06:33:05.271Z,0.25
2019-01-28T06:38:09.051Z,0.00
2019-01-28T06:43:12.832Z,0.00
2019-01-28T06:48:16.612Z,0.50
2019-01-28T06:53:20.379Z,0.00
2019-01-28T06:58:24.165Z,0.00
2019-01-28T07:03:27.928Z,0.00
2019-01-28T07:08:31.718Z,0.00
2019-01-28T07:13:35.486Z,0.00
2019-01-28T07:18:39.251Z,0.00
2019-01-28T07:23:43.024Z,0.00
2019-01-28T07:28:46.792Z,0.00
2019-01-28T07:33:50.556Z,0.00
2019-01-28T07:38:54.382Z,0.00
2019-01-28T07:43:58.229Z,5.00
2019-01-28T07:49:02.096Z,7.25
2019-01-28T07:54:05.920Z,6.60
2019-01-28T07:59:09.933Z,11.00
2019-01-28T08:04:13.706Z,6.25
2019-01-28T08:09:17.493Z,7.80
2019-01-28T08:14:21.288Z,5.75
2019-01-28T08:19:25.064Z,5.00
2019-01-28T08:24:28.853Z,5.60
2019-01-28T08:29:32.647Z,6.00
2019-01-28T08:34:36.437Z,5.00
2019-01-28T08:39:40.223Z,3.00
2019-01-28T08:44:43.994Z,3.00
2019-01-28T08:49:47.784Z,5.25
2019-01-28T08:54:51.564Z,3.00
2019-01-28T08:59:55.332Z,5.00
2019-01-28T09:04:59.120Z,4.60
2019-01-28T09:10:03.062Z,4.75
2019-01-28T09:15:07.523Z,3.20
2019-01-28T09:20:14.225Z,2.50
2019-01-28T09:25:18.063Z,2.00
2019-01-28T09:30:26.876Z,2.60
2019-01-28T09:35:30.656Z,3.00
2019-01-28T09:40:35.142Z,2.00
2019-01-28T09:45:40.623Z,2.50
2019-01-28T09:50:44.437Z,3.00
2019-01-28T09:55:48.228Z,3.50
2019-01-28T10:00:52.297Z,2.60
2019-01-28T10:05:56.095Z,3.50
2019-01-28T10:10:59.889Z,3.00
2019-01-28T10:16:03.682Z,4.75
2019-01-28T10:21:07.465Z,2.00
2019-01-28T10:26:11.247Z,1.80
2019-01-28T10:31:15.040Z,3.00
2019-01-28T10:36:22.603Z,2.80
2019-01-28T10:41:24.605Z,2.00
2019-01-28T10:46:28.390Z,3.00
2019-01-28T10:51:32.166Z,3.25
2019-01-28T10:56:35.952Z,5.20
2019-01-28T11:01:39.744Z,6.60
2019-01-28T11:06:43.528Z,4.00
2019-01-28T11:11:47.346Z,3.75
2019-01-28T11:16:51.153Z,3.80
2019-01-28T11:21:55.000Z,4.80
2019-01-28T11:26:58.867Z,5.00
2019-01-28T11:32:02.635Z,5.00
2019-01-28T11:37:06.477Z,6.00
2019-01-28T11:42:10.417Z,3.75
2019-01-28T11:47:14.180Z,3.00
2019-01-28T11:52:17.971Z,2.00
2019-01-28T11:57:21.742Z,4.00
2019-01-28T12:02:25.506Z,3.00
2019-01-28T12:07:29.284Z,3.25
2019-01-28T12:12:33.058Z,2.50
2019-01-28T12:17:36.841Z,2.00
2019-01-28T12:22:40.697Z,2.00
2019-01-28T12:27:44.571Z,3.00
2019-01-28T12:43:05.490Z,2.00
2019-01-28T12:48:09.240Z,3.00
2019-01-28T12:53:13.048Z,2.00
2019-01-28T12:58:16.809Z,2.75
2019-01-28T13:03:20.566Z,3.00
2019-01-28T13:08:24.346Z,1.00
2019-01-28T13:13:28.113Z,1.00
2019-01-28T13:18:31.873Z,1.00
2019-01-28T13:23:35.636Z,0.75
2019-01-28T13:28:39.423Z,0.50
2019-01-28T13:33:43.182Z,0.75
2019-01-28T13:38:46.951Z,0.40
2019-01-28T13:43:50.710Z,1.00
2019-01-28T13:48:54.489Z,1.00
2019-01-28T13:53:58.246Z,1.00
2019-01-28T13:59:02.012Z,0.00
2019-01-28T14:04:05.810Z,2.20
2019-01-28T14:09:09.687Z,1.50
2019-01-28T14:14:13.460Z,1.00
2019-01-28T14:19:17.224Z,1.00
2019-01-28T14:24:20.988Z,0.80
2019-01-28T14:29:24.764Z,1.50
2019-01-28T14:34:28.523Z,1.00
2019-01-28T14:39:32.286Z,2.00
2019-01-28T14:44:36.076Z,0.00
2019-01-28T14:49:39.825Z,1.00
2019-01-28T14:54:43.594Z,1.00
2019-01-28T14:59:47.368Z,0.40
2019-01-28T15:04:51.147Z,2.00
2019-01-28T15:09:54.940Z,1.00
2019-01-28T15:14:58.701Z,0.25
2019-01-28T15:20:02.894Z,0.00
2019-01-28T15:25:07.607Z,1.00
2019-01-28T15:30:17.057Z,1.00
2019-01-28T15:35:20.838Z,1.00
2019-01-28T15:40:27.045Z,1.00
2019-01-28T15:45:33.337Z,0.60
2019-01-28T15:50:37.102Z,1.00
2019-01-28T15:55:42.456Z,0.00
2019-01-28T16:00:46.420Z,1.60
2019-01-28T16:05:50.202Z,1.20
2019-01-28T16:10:53.971Z,2.00
2019-01-28T16:15:59.321Z,1.00
2019-01-28T16:21:03.112Z,1.00
2019-01-28T16:26:06.905Z,1.40
2019-01-28T16:31:10.706Z,1.00
2019-01-28T16:36:14.574Z,1.50
2019-01-28T16:41:18.397Z,2.25
2019-01-28T16:46:22.246Z,2.00
2019-01-28T16:51:26.025Z,1.00
2019-01-28T16:56:29.819Z,1.00
2019-01-28T17:01:33.621Z,2.00
2019-01-28T17:06:37.386Z,1.00
2019-01-28T17:11:41.169Z,1.00
2019-01-28T17:16:44.943Z,1.00
2019-01-28T17:21:48.747Z,3.00
2019-01-28T17:26:52.503Z,1.00
2019-01-28T17:31:56.278Z,2.00
2019-01-28T17:37:00.122Z,3.00
2019-01-28T17:42:03.915Z,3.00
2019-01-28T17:47:07.704Z,2.00
2019-01-28T17:52:11.462Z,2.00
2019-01-28T17:57:15.295Z,2.00
2019-01-28T18:02:19.083Z,1.40
2019-01-28T18:07:22.848Z,1.25
2019-01-28T18:12:26.636Z,1.50
2019-01-28T18:17:30.392Z,1.00
2019-01-28T18:22:43.041Z,1.50
2019-01-28T18:27:46.812Z,1.40
2019-01-28T18:32:50.615Z,2.25
2019-01-28T18:37:54.400Z,0.80
2019-01-28T18:42:58.164Z,2.00
2019-01-28T18:48:01.954Z,2.00
2019-01-28T18:53:06.063Z,1.00
2019-01-28T18:58:09.887Z,3.00
2019-01-28T19:03:13.672Z,2.00
2019-01-28T19:08:36.471Z,1.00
2019-01-28T19:13:46.724Z,0.75
2019-01-28T19:19:03.841Z,1.00
2019-01-28T19:24:07.609Z,1.00
2019-01-28T19:29:11.432Z,1.00
2019-01-28T19:34:15.221Z,1.20
2019-01-28T19:39:19.039Z,1.00
2019-01-28T19:44:22.798Z,1.20
2019-01-28T19:49:26.557Z,1.00
2019-01-28T19:54:30.342Z,1.80
2019-01-28T19:59:34.127Z,0.80
2019-01-28T20:04:37.896Z,1.25
2019-01-28T20:09:41.690Z,0.00
2019-01-28T20:14:45.467Z,0.80
2019-01-28T20:19:49.235Z,1.00
2019-01-28T20:24:53.025Z,0.80
2019-01-28T20:29:56.822Z,2.00
2019-01-28T20:35:00.593Z,1.25
2019-01-28T20:40:05.467Z,1.00
2019-01-28T20:45:11.139Z,0.00
2019-01-28T20:50:17.548Z,1.00
2019-01-28T20:55:21.331Z,0.00
2019-01-28T21:00:26.374Z,1.00
2019-01-28T21:05:30.222Z,1.00
2019-01-28T21:10:34.044Z,1.00
2019-01-28T21:15:37.824Z,0.00
2019-01-28T21:20:41.686Z,1.00
2019-01-28T21:25:45.754Z,1.00
2019-01-28T21:30:49.571Z,1.00
2019-01-28T21:36:11.063Z,1.00
2019-01-28T21:41:14.839Z,2.00
2019-01-28T21:46:19.019Z,1.25
2019-01-28T21:51:22.994Z,0.20
2019-01-28T21:56:26.908Z,1.00
2019-01-28T22:01:30.712Z,1.00
2019-01-28T22:06:34.552Z,1.00
2019-01-28T22:11:38.371Z,1.00
2019-01-28T22:16:42.159Z,1.00
2019-01-28T22:21:45.957Z,1.00
2019-01-28T22:26:49.759Z,0.00
2019-01-28T22:31:53.594Z,0.25
2019-01-28T22:36:57.376Z,1.00
2019-01-28T22:42:01.160Z,1.00
2019-01-28T22:47:04.967Z,0.40
2019-01-28T22:52:08.845Z,1.00
2019-01-28T22:57:12.682Z,0.25
2019-01-28T23:02:16.502Z,1.00
2019-01-28T23:07:20.362Z,1.00
2019-01-28T23:12:24.192Z,1.50
2019-01-28T23:17:28.008Z,1.00
2019-01-28T23:22:31.810Z,1.00
2019-01-28T23:27:35.596Z,1.00
2019-01-28T23:32:39.367Z,1.25
2019-01-28T23:37:43.178Z,0.80
2019-01-28T23:42:46.962Z,0.00
2019-01-28T23:47:50.846Z,0.75
2019-01-28T23:52:54.705Z,1.75
2019-01-28T23:57:58.510Z,1.00
